createdAt,value
2018-04-07T00:00:30.696Z,100440.73
2018-04-07T00:02:59.614Z,100436.13
2018-04-07T00:05:28.743Z,100440.87
2018-04-07T00:07:58.030Z,100434.95
2018-04-07T00:10:27.130Z,100442.72
2018-04-07T00:12:56.206Z,100443.45
2018-04-07T00:15:25.406Z,100436.08
2018-04-07T00:17:54.435Z,100435.16
2018-04-07T00:20:23.570Z,100429.98
2018-04-07T00:22:52.912Z,100434.19
2018-04-07T00:25:21.822Z,100434.19
2018-04-07T00:27:50.753Z,100431.91
2018-04-07T00:30:19.670Z,100431.05
2018-04-07T00:32:48.703Z,100436.46
2018-04-07T00:35:18.148Z,100430.83
2018-04-07T00:37:47.112Z,100432.19
2018-04-07T00:40:16.302Z,100430.87
2018-04-07T00:42:45.707Z,100429.62
2018-04-07T00:45:14.619Z,100427.72
2018-04-07T00:50:16.973Z,100420.66
2018-04-07T00:52:54.747Z,100415.17
2018-04-07T00:55:23.990Z,100416.09
2018-04-07T00:57:53.433Z,100420.65
2018-04-07T01:00:22.561Z,100411.17
2018-04-07T01:02:51.449Z,100415.16
2018-04-07T01:05:20.709Z,100418.36
2018-04-07T01:07:49.616Z,100414.11
2018-04-07T01:10:18.520Z,100408.98
2018-04-07T01:12:47.915Z,100411.72
2018-04-07T01:15:16.867Z,100409.32
2018-04-07T01:17:45.767Z,100405.18
2018-04-07T01:20:15.112Z,100396.45
2018-04-07T01:22:44.030Z,100399.00
2018-04-07T01:25:12.936Z,100395.30
2018-04-07T01:27:42.148Z,100388.52
2018-04-07T01:30:11.033Z,100382.99
2018-04-07T01:32:40.263Z,100380.89
2018-04-07T01:35:09.144Z,100382.17
2018-04-07T01:37:38.183Z,100379.05
2018-04-07T01:40:07.190Z,100384.45
2018-04-07T01:42:36.216Z,100382.05
2018-04-07T01:45:05.225Z,100380.18
2018-04-07T01:47:34.166Z,100375.68
2018-04-07T01:50:03.722Z,100376.87
2018-04-07T01:52:33.114Z,100374.50
2018-04-07T01:55:02.091Z,100369.30
2018-04-07T01:57:30.979Z,100368.12
2018-04-07T02:00:00.496Z,100361.22
2018-04-07T02:02:29.387Z,100367.63
2018-04-07T02:04:58.292Z,100369.37
2018-04-07T02:07:27.188Z,100370.30
2018-04-07T02:09:56.124Z,100373.00
2018-04-07T02:12:25.538Z,100358.16
2018-04-07T02:14:54.429Z,100363.92
2018-04-07T02:17:23.365Z,100363.23
2018-04-07T02:19:52.319Z,100366.91
2018-04-07T02:22:21.280Z,100364.41
2018-04-07T02:24:50.660Z,100368.45
2018-04-07T02:27:19.596Z,100366.09
2018-04-07T02:29:48.495Z,100365.89
2018-04-07T02:32:17.839Z,100365.10
2018-04-07T02:34:46.749Z,100364.93
2018-04-07T02:37:15.644Z,100364.30
2018-04-07T02:39:44.834Z,100365.31
2018-04-07T02:42:13.917Z,100369.31
2018-04-07T02:44:42.844Z,100380.60
2018-04-07T02:47:12.175Z,100373.83
2018-04-07T02:49:41.059Z,100368.84
2018-04-07T02:52:09.920Z,100367.67
2018-04-07T02:54:39.760Z,100375.66
2018-04-07T02:57:08.665Z,100371.69
2018-04-07T02:59:37.672Z,100373.65
2018-04-07T03:02:06.597Z,100370.92
2018-04-07T03:04:35.524Z,100369.25
2018-04-07T03:07:04.821Z,100368.73
2018-04-07T03:09:33.728Z,100379.15
2018-04-07T03:12:03.172Z,100382.26
2018-04-07T03:14:32.059Z,100388.45
2018-04-07T03:17:00.979Z,100382.44
2018-04-07T03:19:30.332Z,100384.33
2018-04-07T03:21:59.265Z,100382.10
2018-04-07T03:24:28.166Z,100378.64
2018-04-07T03:26:57.373Z,100376.88
2018-04-07T03:29:26.247Z,100375.31
2018-04-07T03:31:55.144Z,100373.70
2018-04-07T03:34:24.328Z,100371.53
2018-04-07T03:36:53.190Z,100369.48
2018-04-07T03:39:22.104Z,100373.53
2018-04-07T03:41:51.333Z,100375.34
2018-04-07T03:44:20.252Z,100383.34
2018-04-07T03:46:49.200Z,100387.54
2018-04-07T03:49:18.487Z,100379.08
2018-04-07T03:51:47.409Z,100376.59
2018-04-07T03:54:16.311Z,100379.22
2018-04-07T03:56:45.753Z,100377.69
2018-04-07T03:59:14.662Z,100382.57
2018-04-07T04:01:43.589Z,100379.88
2018-04-07T04:04:12.566Z,100383.59
2018-04-07T04:06:41.572Z,100375.38
2018-04-07T04:09:10.873Z,100375.16
2018-04-07T04:11:39.793Z,100382.75
2018-04-07T04:14:08.807Z,100381.81
2018-04-07T04:16:38.424Z,100383.61
2018-04-07T04:19:07.361Z,100389.80
2018-04-07T04:21:36.261Z,100387.75
2018-04-07T04:24:06.256Z,100381.73
2018-04-07T04:26:35.144Z,100393.63
2018-04-07T04:29:04.284Z,100383.61
2018-04-07T04:31:33.633Z,100380.70
2018-04-07T04:34:03.241Z,100388.27
2018-04-07T04:36:32.168Z,100387.38
2018-04-07T04:39:01.659Z,100391.91
2018-04-07T04:41:30.725Z,100395.59
2018-04-07T04:43:59.614Z,100398.30
2018-04-07T04:46:29.053Z,100394.81
2018-04-07T04:48:58.041Z,100401.11
2018-04-07T04:51:26.952Z,100400.37
2018-04-07T04:53:56.218Z,100401.36
2018-04-07T04:56:25.140Z,100394.77
2018-04-07T04:58:54.056Z,100397.70
2018-04-07T05:01:23.344Z,100399.47
2018-04-07T05:03:52.324Z,100405.02
2018-04-07T05:06:21.253Z,100399.25
2018-04-07T05:08:50.883Z,100396.63
2018-04-07T05:11:19.789Z,100401.33
2018-04-07T05:13:48.730Z,100402.75
2018-04-07T05:16:18.162Z,100404.81
2018-04-07T05:18:47.666Z,100399.22
2018-04-07T05:21:16.632Z,100392.98
2018-04-07T05:23:46.036Z,100394.19
2018-04-07T05:26:14.907Z,100387.52
2018-04-07T05:28:43.761Z,100389.42
2018-04-07T05:31:13.172Z,100385.84
2018-04-07T05:33:42.053Z,100392.69
2018-04-07T05:36:10.964Z,100392.14
2018-04-07T05:38:40.365Z,100398.48
2018-04-07T05:41:09.274Z,100393.47
2018-04-07T05:43:38.297Z,100402.00
2018-04-07T05:46:07.744Z,100396.55
2018-04-07T05:48:36.819Z,100405.97
2018-04-07T05:51:05.776Z,100403.43
2018-04-07T05:53:35.008Z,100402.61
2018-04-07T05:56:04.541Z,100402.27
2018-04-07T05:58:33.512Z,100404.03
2018-04-07T06:01:02.901Z,100409.69
2018-04-07T06:03:31.829Z,100409.40
2018-04-07T06:06:00.770Z,100412.54
2018-04-07T06:08:30.097Z,100402.44
2018-04-07T06:10:59.008Z,100406.54
2018-04-07T06:13:27.913Z,100407.98
2018-04-07T06:15:57.264Z,100408.28
2018-04-07T06:18:26.276Z,100407.41
2018-04-07T06:20:55.324Z,100402.59
2018-04-07T06:23:24.667Z,100401.27
2018-04-07T06:25:53.637Z,100401.72
2018-04-07T06:28:22.584Z,100392.90
2018-04-07T06:30:51.907Z,100402.70
2018-04-07T06:33:20.816Z,100407.75
2018-04-07T06:35:49.774Z,100407.95
2018-04-07T06:38:19.259Z,100400.42
2018-04-07T06:40:48.162Z,100403.50
2018-04-07T06:43:17.071Z,100401.36
2018-04-07T06:45:46.370Z,100400.44
2018-04-07T06:48:15.289Z,100398.19
2018-04-07T06:50:44.189Z,100398.62
2018-04-07T06:53:13.576Z,100392.55
2018-04-07T06:55:42.447Z,100397.46
2018-04-07T06:58:11.348Z,100397.37
2018-04-07T07:00:41.305Z,100398.06
2018-04-07T07:03:10.220Z,100398.83
2018-04-07T07:05:39.364Z,100408.66
2018-04-07T07:08:08.801Z,100409.19
2018-04-07T07:10:38.049Z,100414.91
2018-04-07T07:13:07.091Z,100411.62
2018-04-07T07:15:36.848Z,100408.95
2018-04-07T07:18:05.893Z,100415.63
2018-04-07T07:20:34.807Z,100406.78
2018-04-07T07:23:04.573Z,100409.91
2018-04-07T07:25:33.561Z,100414.25
2018-04-07T07:28:03.496Z,100419.36
2018-04-07T07:30:32.848Z,100419.35
2018-04-07T07:33:02.809Z,100410.53
2018-04-07T07:35:31.712Z,100410.27
2018-04-07T07:38:01.934Z,100400.85
2018-04-07T07:40:30.876Z,100399.59
2018-04-07T07:43:00.609Z,100399.63
2018-04-07T07:45:29.610Z,100401.06
2018-04-07T07:47:58.548Z,100400.17
2018-04-07T07:50:27.473Z,100397.80
2018-04-07T07:52:56.859Z,100396.91
2018-04-07T07:55:25.842Z,100401.48
2018-04-07T07:57:54.776Z,100404.96
2018-04-07T08:00:24.035Z,100400.44
2018-04-07T08:02:53.213Z,100400.72
2018-04-07T08:05:22.144Z,100403.93
2018-04-07T08:07:51.496Z,100399.52
2018-04-07T08:10:20.399Z,100398.98
2018-04-07T08:12:49.554Z,100396.87
2018-04-07T08:15:18.876Z,100406.80
2018-04-07T08:17:47.814Z,100402.59
2018-04-07T08:20:16.749Z,100397.85
2018-04-07T08:22:46.059Z,100400.97
2018-04-07T08:25:14.963Z,100401.53
2018-04-07T08:27:43.900Z,100400.16
2018-04-07T08:30:13.291Z,100403.03
2018-04-07T08:32:42.192Z,100402.70
2018-04-07T08:35:11.144Z,100405.16
2018-04-07T08:37:40.475Z,100405.70
2018-04-07T08:40:09.412Z,100418.94
2018-04-07T08:42:38.401Z,100419.25
2018-04-07T08:45:07.879Z,100422.77
2018-04-07T08:47:36.915Z,100418.64
2018-04-07T08:50:06.324Z,100417.25
2018-04-07T08:52:35.742Z,100418.53
2018-04-07T08:55:05.387Z,100414.55
2018-04-07T08:57:34.312Z,100415.60
2018-04-07T09:00:04.879Z,100414.26
2018-04-07T09:02:33.971Z,100415.04
2018-04-07T09:05:03.217Z,100410.28
2018-04-07T09:07:32.523Z,100415.45
2018-04-07T09:10:01.655Z,100408.19
2018-04-07T09:12:30.561Z,100409.08
2018-04-07T09:14:59.784Z,100407.16
2018-04-07T09:17:28.723Z,100405.48
2018-04-07T09:19:57.815Z,100404.84
2018-04-07T09:22:27.089Z,100405.03
2018-04-07T09:24:55.987Z,100398.67
2018-04-07T09:27:24.917Z,100394.98
2018-04-07T09:29:55.002Z,100393.80
2018-04-07T09:32:23.905Z,100390.74
2018-04-07T09:34:52.817Z,100385.19
2018-04-07T09:37:22.116Z,100382.83
2018-04-07T09:39:51.091Z,100374.66
2018-04-07T09:42:20.047Z,100369.92
2018-04-07T09:44:49.050Z,100366.37
2018-04-07T09:47:18.097Z,100361.29
2018-04-07T09:49:47.508Z,100359.75
2018-04-07T09:52:16.531Z,100364.36
2018-04-07T09:54:45.673Z,100360.85
2018-04-07T09:57:14.728Z,100357.65
2018-04-07T09:59:43.732Z,100357.30
2018-04-07T10:02:17.018Z,100355.45
2018-04-07T10:04:47.233Z,100358.02
2018-04-07T10:07:16.252Z,100353.48
2018-04-07T10:09:45.265Z,100351.48
2018-04-07T10:12:14.207Z,100348.28
2018-04-07T10:14:43.120Z,100345.41
2018-04-07T10:17:12.046Z,100343.20
2018-04-07T10:19:42.483Z,100344.42
2018-04-07T10:22:11.912Z,100337.17
2018-04-07T10:24:40.882Z,100335.09
2018-04-07T10:27:09.863Z,100329.00
2018-04-07T10:29:39.300Z,100329.80
2018-04-07T10:32:08.262Z,100329.66
2018-04-07T10:34:37.357Z,100322.42
2018-04-07T10:37:06.888Z,100327.89
2018-04-07T10:39:35.783Z,100315.80
2018-04-07T10:42:05.366Z,100318.25
2018-04-07T10:44:34.841Z,100312.81
2018-04-07T10:47:03.943Z,100304.55
2018-04-07T10:49:32.942Z,100297.86
2018-04-07T10:52:03.603Z,100289.94
2018-04-07T10:54:32.574Z,100291.87
2018-04-07T10:57:01.678Z,100290.05
2018-04-07T10:59:30.944Z,100286.49
2018-04-07T11:01:59.838Z,100280.23
2018-04-07T11:04:28.784Z,100279.79
2018-04-07T11:06:58.224Z,100279.61
2018-04-07T11:09:27.165Z,100271.23
2018-04-07T11:11:56.849Z,100269.55
2018-04-07T11:14:26.705Z,100274.95
2018-04-07T11:16:55.814Z,100270.55
2018-04-07T11:19:24.714Z,100259.30
2018-04-07T11:21:54.031Z,100257.81
2018-04-07T11:24:23.399Z,100256.91
2018-04-07T11:26:52.348Z,100251.73
2018-04-07T11:29:21.282Z,100244.14
2018-04-07T11:31:50.191Z,100235.67
2018-04-07T11:34:20.594Z,100236.02
2018-04-07T11:36:49.525Z,100237.84
2018-04-07T11:39:18.511Z,100228.42
2018-04-07T11:41:47.430Z,100225.17
2018-04-07T11:44:16.339Z,100223.94
2018-04-07T11:46:45.550Z,100221.80
2018-04-07T11:49:14.468Z,100222.96
2018-04-07T11:51:43.359Z,100212.77
2018-04-07T11:54:12.295Z,100204.95
2018-04-07T11:56:41.304Z,100199.27
2018-04-07T11:59:10.249Z,100195.88
2018-04-07T12:01:39.694Z,100197.11
2018-04-07T12:04:09.754Z,100184.38
2018-04-07T12:06:38.665Z,100189.98
2018-04-07T12:09:07.968Z,100186.07
2018-04-07T12:11:36.949Z,100182.36
2018-04-07T12:14:06.587Z,100177.70
2018-04-07T12:16:36.026Z,100180.44
2018-04-07T12:19:05.383Z,100173.19
2018-04-07T12:21:34.329Z,100168.19
2018-04-07T12:24:05.620Z,100168.86
2018-04-07T12:26:34.615Z,100159.14
2018-04-07T12:29:03.780Z,100161.19
2018-04-07T12:31:33.149Z,100155.80
2018-04-07T12:34:04.097Z,100149.34
2018-04-07T12:36:32.997Z,100145.72
2018-04-07T12:39:02.576Z,100147.04
2018-04-07T12:41:31.484Z,100143.59
2018-04-07T12:44:00.465Z,100135.68
2018-04-07T12:46:29.384Z,100139.06
2018-04-07T12:48:58.444Z,100138.69
2018-04-07T12:51:27.413Z,100128.92
2018-04-07T12:53:58.049Z,100127.03
2018-04-07T12:56:27.112Z,100119.88
2018-04-07T12:58:56.211Z,100115.08
2018-04-07T13:01:25.584Z,100105.86
2018-04-07T13:03:54.641Z,100103.30
2018-04-07T13:06:23.619Z,100103.01
2018-04-07T13:08:53.041Z,100100.61
2018-04-07T13:11:22.070Z,100098.66
2018-04-07T13:13:50.979Z,100092.19
2018-04-07T13:16:20.226Z,100089.86
2018-04-07T13:18:49.458Z,100085.37
2018-04-07T13:21:18.396Z,100079.88
2018-04-07T13:23:47.753Z,100072.13
2018-04-07T13:26:17.345Z,100077.08
2018-04-07T13:28:46.353Z,100072.33
2018-04-07T13:31:15.741Z,100069.23
2018-04-07T13:33:44.948Z,100064.57
2018-04-07T13:36:13.884Z,100058.59
2018-04-07T13:38:43.305Z,100063.81
2018-04-07T13:41:12.234Z,100056.05
2018-04-07T13:43:42.320Z,100054.99
2018-04-07T13:46:11.723Z,100047.31
2018-04-07T13:48:40.707Z,100041.52
2018-04-07T13:51:09.944Z,100045.22
2018-04-07T13:53:40.144Z,100040.24
2018-04-07T13:56:09.088Z,100037.73
2018-04-07T13:58:38.275Z,100034.88
2018-04-07T14:01:09.363Z,100026.16
2018-04-07T14:03:38.344Z,100029.89
2018-04-07T14:06:07.240Z,100026.27
2018-04-07T14:08:36.746Z,100034.68
2018-04-07T14:11:05.677Z,100021.56
2018-04-07T14:13:34.577Z,100021.81
2018-04-07T14:16:05.236Z,100013.15
2018-04-07T14:18:34.128Z,100018.16
2018-04-07T14:21:03.349Z,100012.16
2018-04-07T14:23:32.742Z,100003.72
2018-04-07T14:26:03.416Z,99998.38
2018-04-07T14:28:32.307Z,99999.98
2018-04-07T14:31:01.534Z,99995.20
2018-04-07T14:33:30.440Z,99997.44
2018-04-07T14:35:59.333Z,99995.27
2018-04-07T14:38:28.636Z,99988.94
2018-04-07T14:40:57.568Z,99984.41
2018-04-07T14:43:26.503Z,99978.48
2018-04-07T14:45:55.895Z,99978.37
2018-04-07T14:48:24.965Z,99976.31
2018-04-07T14:50:53.873Z,99976.98
2018-04-07T14:55:53.901Z,99968.70
2018-04-07T14:58:23.105Z,99968.05
2018-04-07T15:00:52.389Z,99958.61
2018-04-07T15:03:21.351Z,99966.50
2018-04-07T15:05:50.313Z,99959.79
2018-04-07T15:08:19.556Z,99952.38
2018-04-07T15:10:48.613Z,99957.41
2018-04-07T15:13:17.565Z,99956.66
2018-04-07T15:15:47.732Z,99954.12
2018-04-07T15:18:16.665Z,99943.84
2018-04-07T15:20:45.598Z,99946.81
2018-04-07T15:23:14.970Z,99937.97
2018-04-07T15:25:43.885Z,99944.05
2018-04-07T15:28:12.804Z,99945.24
2018-04-07T15:30:42.358Z,99938.44
2018-04-07T15:33:11.309Z,99933.84
2018-04-07T15:35:40.901Z,99933.17
2018-04-07T15:38:10.389Z,99929.30
2018-04-07T15:40:39.673Z,99928.01
2018-04-07T15:43:08.718Z,99933.13
2018-04-07T15:45:38.144Z,99928.91
2018-04-07T15:48:08.100Z,99920.02
2018-04-07T15:50:37.206Z,99925.82
2018-04-07T15:53:06.636Z,99925.74
2018-04-07T15:55:35.521Z,99926.55
2018-04-07T15:58:05.130Z,99917.64
2018-04-07T16:00:34.648Z,99921.67
2018-04-07T16:03:04.012Z,99922.70
2018-04-07T16:05:33.197Z,99921.08
2018-04-07T16:08:05.666Z,99928.14
2018-04-07T16:10:35.218Z,99926.70
2018-04-07T16:13:04.565Z,99924.64
2018-04-07T16:15:33.590Z,99919.27
2018-04-07T16:18:03.364Z,99920.86
2018-04-07T16:20:32.482Z,99919.16
2018-04-07T16:23:04.134Z,99919.66
2018-04-07T16:25:33.880Z,99919.98
2018-04-07T16:28:03.677Z,99915.64
2018-04-07T16:30:33.128Z,99910.20
2018-04-07T16:33:03.858Z,99911.36
2018-04-07T16:35:32.932Z,99911.13
2018-04-07T16:38:03.084Z,99907.16
2018-04-07T16:40:39.268Z,99907.10
2018-04-07T16:43:08.317Z,99904.08
2018-04-07T16:45:37.392Z,99906.38
2018-04-07T16:48:07.269Z,99901.73
2018-04-07T16:50:36.608Z,99907.53
2018-04-07T16:53:05.721Z,99898.18
2018-04-07T16:55:34.859Z,99901.65
2018-04-07T16:58:05.112Z,99903.16
2018-04-07T17:00:34.102Z,99902.19
2018-04-07T17:03:04.369Z,99903.16
2018-04-07T17:05:33.693Z,99905.07
2018-04-07T17:08:04.681Z,99905.97
2018-04-07T17:10:34.671Z,99904.80
2018-04-07T17:13:04.109Z,99907.56
2018-04-07T17:15:33.131Z,99914.91
2018-04-07T17:18:04.782Z,99907.25
2018-04-07T17:20:39.186Z,99904.59
2018-04-07T17:23:08.824Z,99904.24
2018-04-07T17:25:37.919Z,99897.95
2018-04-07T17:28:06.833Z,99907.45
2018-04-07T17:30:35.812Z,99906.36
2018-04-07T17:33:05.059Z,99900.02
2018-04-07T17:35:34.022Z,99901.66
2018-04-07T17:38:04.991Z,99896.63
2018-04-07T17:40:33.967Z,99892.65
2018-04-07T17:43:03.157Z,99898.05
2018-04-07T17:45:32.460Z,99893.12
2018-04-07T17:48:01.409Z,99896.53
2018-04-07T17:50:30.475Z,99893.91
2018-04-07T17:52:59.697Z,99887.73
2018-04-07T17:55:28.644Z,99888.75
2018-04-07T17:57:58.175Z,99885.58
2018-04-07T18:00:27.814Z,99894.88
2018-04-07T18:02:56.732Z,99890.83
2018-04-07T18:05:25.678Z,99895.94
2018-04-07T18:07:56.028Z,99896.30
2018-04-07T18:10:24.982Z,99899.61
2018-04-07T18:12:54.048Z,99899.99
2018-04-07T18:15:23.027Z,99903.84
2018-04-07T18:17:53.417Z,99908.63
2018-04-07T18:20:22.349Z,99918.51
2018-04-07T18:22:51.597Z,99913.52
2018-04-07T18:25:20.528Z,99911.01
2018-04-07T18:27:49.436Z,99911.87
2018-04-07T18:30:18.461Z,99913.76
2018-04-07T18:32:47.498Z,99910.63
2018-04-07T18:35:16.399Z,99909.59
2018-04-07T18:37:45.726Z,99912.34
2018-04-07T18:40:14.632Z,99918.67
2018-04-07T18:42:43.900Z,99920.44
2018-04-07T18:45:12.825Z,99927.52
2018-04-07T18:47:42.530Z,99935.72
2018-04-07T18:50:11.495Z,99932.64
2018-04-07T18:52:41.047Z,99939.07
2018-04-07T18:55:09.954Z,99938.67
2018-04-07T18:57:39.075Z,99944.05
2018-04-07T19:00:08.009Z,99943.13
2018-04-07T19:02:36.908Z,99946.49
2018-04-07T19:05:05.821Z,99947.74
2018-04-07T19:07:35.562Z,99948.59
2018-04-07T19:10:05.908Z,99949.70
2018-04-07T19:12:34.824Z,99953.55
2018-04-07T19:15:04.508Z,99954.64
2018-04-07T19:17:33.443Z,99954.19
2018-04-07T19:20:03.375Z,99949.50
2018-04-07T19:22:32.564Z,99957.67
2018-04-07T19:25:01.890Z,99958.59
2018-04-07T19:27:30.793Z,99955.77
2018-04-07T19:30:00.177Z,99954.99
2018-04-07T19:32:29.141Z,99951.72
2018-04-07T19:34:58.540Z,99952.23
2018-04-07T19:37:27.533Z,99955.55
2018-04-07T19:39:56.480Z,99955.39
2018-04-07T19:42:25.406Z,99947.09
2018-04-07T19:44:54.758Z,99958.13
2018-04-07T19:47:23.706Z,99961.77
2018-04-07T19:49:52.658Z,99958.66
2018-04-07T19:52:22.178Z,99961.82
2018-04-07T19:54:51.176Z,99962.44
2018-04-07T19:57:20.195Z,99963.58
2018-04-07T19:59:50.369Z,99964.89
2018-04-07T20:02:19.419Z,99964.44
2018-04-07T20:04:49.274Z,99966.91
2018-04-07T20:07:18.601Z,99963.89
2018-04-07T20:09:47.612Z,99959.09
2018-04-07T20:12:16.576Z,99964.66
2018-04-07T20:14:45.998Z,99962.72
2018-04-07T20:17:15.027Z,99961.23
2018-04-07T20:19:44.127Z,99961.88
2018-04-07T20:22:14.267Z,99959.38
2018-04-07T20:24:43.287Z,99958.26
2018-04-07T20:27:12.238Z,99958.40
2018-04-07T20:29:41.624Z,99954.17
2018-04-07T20:32:10.554Z,99956.98
2018-04-07T20:34:40.891Z,99956.92
2018-04-07T20:37:10.160Z,99950.98
2018-04-07T20:39:39.319Z,99955.08
2018-04-07T20:42:17.307Z,99956.13
2018-04-07T20:44:46.652Z,99952.91
2018-04-07T20:49:55.212Z,99953.55
2018-04-07T20:52:24.214Z,99954.50
2018-04-07T20:54:53.173Z,99949.22
2018-04-07T20:57:22.196Z,99956.18
2018-04-07T20:59:51.151Z,99950.29
2018-04-07T21:02:20.162Z,99954.25
2018-04-07T21:04:50.408Z,99947.39
2018-04-07T21:07:19.353Z,99943.88
2018-04-07T21:09:48.317Z,99944.88
2018-04-07T21:12:17.760Z,99945.44
2018-04-07T21:14:46.625Z,99942.51
2018-04-07T21:17:15.520Z,99949.34
2018-04-07T21:19:44.833Z,99946.14
2018-04-07T21:22:13.774Z,99953.72
2018-04-07T21:24:43.583Z,99946.91
2018-04-07T21:27:12.967Z,99947.30
2018-04-07T21:29:43.047Z,99944.11
2018-04-07T21:32:12.059Z,99955.41
2018-04-07T21:34:41.571Z,99946.59
2018-04-07T21:37:10.489Z,99947.04
2018-04-07T21:39:40.321Z,99947.78
2018-04-07T21:42:09.501Z,99941.08
2018-04-07T21:44:38.700Z,99944.09
2018-04-07T21:47:07.945Z,99943.77
2018-04-07T21:49:36.868Z,99943.83
2018-04-07T21:52:05.805Z,99945.17
2018-04-07T21:54:34.780Z,99944.91
2018-04-07T21:57:03.708Z,99940.08
2018-04-07T21:59:33.092Z,99945.52
2018-04-07T22:02:03.657Z,99940.11
2018-04-07T22:04:32.678Z,99935.06
2018-04-07T22:07:02.066Z,99935.17
2018-04-07T22:09:31.014Z,99930.02
2018-04-07T22:12:00.059Z,99935.30
2018-04-07T22:14:29.326Z,99936.45
2018-04-07T22:16:58.296Z,99930.45
2018-04-07T22:19:27.358Z,99933.20
2018-04-07T22:21:56.686Z,99939.59
2018-04-07T22:24:26.250Z,99933.91
2018-04-07T22:26:55.180Z,99939.81
2018-04-07T22:29:24.662Z,99937.19
2018-04-07T22:31:53.663Z,99935.28
2018-04-07T22:34:22.569Z,99932.62
2018-04-07T22:36:51.559Z,99935.38
2018-04-07T22:39:20.577Z,99931.31
2018-04-07T22:41:51.294Z,99931.38
2018-04-07T22:44:20.587Z,99930.41
2018-04-07T22:46:49.508Z,99932.49
2018-04-07T22:49:18.412Z,99930.25
2018-04-07T22:51:48.610Z,99927.44
2018-04-07T22:56:52.636Z,99937.95
2018-04-07T22:59:22.221Z,99932.84
2018-04-07T23:01:51.160Z,99938.02
2018-04-07T23:04:20.156Z,99933.27
2018-04-07T23:06:49.419Z,99936.62
2018-04-07T23:09:18.388Z,99932.08
2018-04-07T23:11:47.462Z,99923.34
2018-04-07T23:14:16.704Z,99931.58
2018-04-07T23:16:45.639Z,99934.38
2018-04-07T23:19:14.524Z,99932.97
2018-04-07T23:21:43.895Z,99927.59
2018-04-07T23:24:12.816Z,99934.02
2018-04-07T23:26:41.745Z,99929.48
2018-04-07T23:29:10.928Z,99933.61
2018-04-07T23:31:39.976Z,99925.84
2018-04-07T23:34:08.885Z,99922.77
2018-04-07T23:36:38.348Z,99916.48
2018-04-07T23:39:07.292Z,99914.38
2018-04-07T23:41:36.320Z,99912.56
2018-04-07T23:44:06.667Z,99915.61
2018-04-07T23:46:35.627Z,99915.08
2018-04-07T23:49:04.565Z,99909.47
2018-04-07T23:51:33.918Z,99911.06
2018-04-07T23:54:04.738Z,99912.45
2018-04-07T23:56:33.632Z,99915.32
2018-04-07T23:59:04.593Z,99914.69
